createdAt,value
2023-04-12T00:00:57.876Z,1006.55
2023-04-12T00:01:57.906Z,1006.52
2023-04-12T00:02:57.923Z,1006.49
2023-04-12T00:03:58.208Z,1006.54
2023-04-12T00:04:58.045Z,1006.51
2023-04-12T00:05:57.886Z,1006.52
2023-04-12T00:06:57.924Z,1006.54
2023-04-12T00:07:57.894Z,1006.56
2023-04-12T00:08:57.898Z,1006.54
2023-04-12T00:09:57.909Z,1006.53
2023-04-12T00:10:57.914Z,1006.49
2023-04-12T00:11:57.914Z,1006.47
2023-04-12T00:12:57.912Z,1006.43
2023-04-12T00:13:58.139Z,1006.44
2023-04-12T00:14:57.932Z,1006.44
2023-04-12T00:15:57.938Z,1006.39
2023-04-12T00:16:57.923Z,1006.41
2023-04-12T00:17:57.991Z,1006.43
2023-04-12T00:18:57.938Z,1006.42
2023-04-12T00:19:57.934Z,1006.42
2023-04-12T00:20:57.965Z,1006.37
2023-04-12T00:21:57.959Z,1006.34
2023-04-12T00:22:57.942Z,1006.34
2023-04-12T00:23:58.060Z,1006.33
2023-04-12T00:24:57.951Z,1006.33
2023-04-12T00:25:57.976Z,1006.29
2023-04-12T00:26:57.955Z,1006.25
2023-04-12T00:27:57.959Z,1006.24
2023-04-12T00:28:57.969Z,1006.22
2023-04-12T00:29:57.976Z,1006.23
2023-04-12T00:30:57.991Z,1006.20
2023-04-12T00:31:57.978Z,1006.18
2023-04-12T00:32:58.021Z,1006.17
2023-04-12T00:33:58.272Z,1006.16
2023-04-12T00:34:57.986Z,1006.14
2023-04-12T00:35:58.051Z,1006.10
2023-04-12T00:36:58.008Z,1006.14
2023-04-12T00:37:58.019Z,1006.06
2023-04-12T00:38:58.004Z,1006.06
2023-04-12T00:39:57.996Z,1006.05
2023-04-12T00:40:58.001Z,1005.98
2023-04-12T00:41:58.005Z,1006.01
2023-04-12T00:42:58.014Z,1005.97
2023-04-12T00:43:58.106Z,1005.97
2023-04-12T00:44:58.017Z,1005.89
2023-04-12T00:45:58.027Z,1005.85
2023-04-12T00:46:58.105Z,1005.84
2023-04-12T00:47:58.055Z,1005.83
2023-04-12T00:48:58.030Z,1005.80
2023-04-12T00:49:58.033Z,1005.82
2023-04-12T00:50:58.030Z,1005.80
2023-04-12T00:51:58.032Z,1005.81
2023-04-12T00:52:58.071Z,1005.79
2023-04-12T00:53:58.231Z,1005.82
2023-04-12T00:54:58.048Z,1005.81
2023-04-12T00:55:58.051Z,1005.83
2023-04-12T00:56:58.055Z,1005.86
2023-04-12T00:57:58.061Z,1005.83
2023-04-12T00:58:58.058Z,1005.82
2023-04-12T00:59:58.057Z,1005.82
2023-04-12T01:00:58.095Z,1005.77
2023-04-12T10:37:43.431Z,996.57
2023-04-12T10:38:43.466Z,996.61
2023-04-12T10:39:43.400Z,996.51
2023-04-12T10:40:43.428Z,996.47
2023-04-12T10:41:43.440Z,996.52
2023-04-12T10:42:43.448Z,996.47
2023-04-12T10:43:43.447Z,996.43
2023-04-12T10:44:43.453Z,996.40
2023-04-12T10:45:43.442Z,996.44
2023-04-12T10:46:43.558Z,996.32
2023-04-12T10:47:43.566Z,996.47
2023-04-12T10:48:43.555Z,996.46
2023-04-12T10:49:43.474Z,996.51
2023-04-12T10:50:43.509Z,996.30
2023-04-12T10:51:43.508Z,996.31
2023-04-12T10:52:43.509Z,996.30
2023-04-12T10:53:43.547Z,996.49
2023-04-12T10:54:43.509Z,996.40
2023-04-12T10:55:43.537Z,996.36
2023-04-12T10:56:43.575Z,996.43
2023-04-12T10:57:43.580Z,996.53
2023-04-12T10:58:43.598Z,996.34
2023-04-12T10:59:47.669Z,996.48
2023-04-12T11:00:43.707Z,996.41
2023-04-12T11:01:43.700Z,996.36
2023-04-12T11:02:43.732Z,996.46
2023-04-12T11:03:43.710Z,996.28
2023-04-12T11:04:43.678Z,996.24
2023-04-12T11:05:43.680Z,996.27
2023-04-12T11:06:43.606Z,996.33
2023-04-12T11:07:43.611Z,996.27
2023-04-12T11:08:43.628Z,996.14
2023-04-12T11:09:43.756Z,996.19
2023-04-12T11:10:43.628Z,996.19
2023-04-12T11:11:43.657Z,996.21
2023-04-12T11:12:43.641Z,996.22
2023-04-12T11:13:43.650Z,996.10
2023-04-12T11:14:43.661Z,996.17
2023-04-12T11:15:43.662Z,996.10
2023-04-12T11:16:43.735Z,996.08
2023-04-12T11:17:43.718Z,996.12
2023-04-12T11:18:43.715Z,996.14
2023-04-12T11:19:43.754Z,996.18
2023-04-12T11:20:43.722Z,996.15
2023-04-12T11:21:43.709Z,996.15
2023-04-12T11:22:43.729Z,996.15
2023-04-12T11:23:43.733Z,996.06
2023-04-12T11:24:43.777Z,996.15
2023-04-12T11:25:43.808Z,996.14
2023-04-12T11:26:43.740Z,996.17
2023-04-12T11:27:43.745Z,996.10
2023-04-12T11:28:43.751Z,996.12
2023-04-12T11:29:43.790Z,996.19
2023-04-12T11:30:43.773Z,996.15
2023-04-12T11:31:43.839Z,996.09
2023-04-12T11:32:43.826Z,996.09
2023-04-12T11:33:43.795Z,996.12
2023-04-12T11:34:43.802Z,996.08
2023-04-12T11:35:43.804Z,996.04
2023-04-12T11:36:43.804Z,996.10
2023-04-12T11:37:43.819Z,996.07
2023-04-12T11:38:43.826Z,996.07
2023-04-12T11:39:43.834Z,996.12
2023-04-12T11:40:43.836Z,996.08
2023-04-12T11:41:43.858Z,996.11
2023-04-12T11:42:43.843Z,996.08
2023-04-12T11:43:43.850Z,996.24
2023-04-12T11:44:56.290Z,996.06
2023-04-12T11:45:43.883Z,996.03
2023-04-12T11:46:43.872Z,996.12
2023-04-12T11:47:43.954Z,996.05
2023-04-12T11:48:43.887Z,996.04
2023-04-12T11:49:43.950Z,996.04
2023-04-12T11:50:44.021Z,996.11
2023-04-12T11:51:43.904Z,996.04
2023-04-12T11:52:43.900Z,996.06
2023-04-12T11:53:43.920Z,995.99
2023-04-12T11:54:43.923Z,995.98
2023-04-12T11:55:43.928Z,995.99
2023-04-12T11:56:43.932Z,995.93
2023-04-12T11:57:43.953Z,995.91
2023-04-12T11:58:43.947Z,995.88
2023-04-12T11:59:43.951Z,995.89
2023-04-12T12:00:43.960Z,995.89
2023-04-12T12:01:43.991Z,995.92
2023-04-12T12:02:55.988Z,996.02
2023-04-12T12:03:44.374Z,996.03
2023-04-12T12:04:44.213Z,996.01
2023-04-12T12:05:44.091Z,996.07
2023-04-12T12:06:44.173Z,996.03
2023-04-12T12:07:43.991Z,996.05
2023-04-12T12:08:43.996Z,996.05
2023-04-12T12:09:44.009Z,996.10
2023-04-12T12:10:52.269Z,996.11
2023-04-12T12:11:44.013Z,996.13
2023-04-12T12:12:44.019Z,996.02
2023-04-12T12:13:44.050Z,996.12
2023-04-12T12:14:44.027Z,996.07
2023-04-12T12:15:44.067Z,996.06
2023-04-12T12:16:44.045Z,996.05
2023-04-12T12:17:44.089Z,996.05
2023-04-12T12:18:44.055Z,996.03
2023-04-12T12:19:44.080Z,996.10
2023-04-12T12:20:44.059Z,996.02
2023-04-12T12:21:44.069Z,996.05
2023-04-12T12:22:44.078Z,996.06
2023-04-12T12:23:44.090Z,995.98
2023-04-12T12:24:44.086Z,996.05
2023-04-12T12:25:44.081Z,996.04
2023-04-12T12:26:44.090Z,996.08
2023-04-12T12:27:44.145Z,996.06
2023-04-12T12:28:44.096Z,996.07
2023-04-12T12:29:44.136Z,996.04
2023-04-12T12:30:44.114Z,996.07
2023-04-12T12:31:44.126Z,996.08
2023-04-12T12:32:44.215Z,996.13
2023-04-12T12:34:00.307Z,996.12
2023-04-12T12:34:44.147Z,996.08
2023-04-12T12:35:44.138Z,996.08
2023-04-12T12:36:44.142Z,996.03
2023-04-12T12:37:44.141Z,996.12
2023-04-12T12:38:44.152Z,996.06
2023-04-12T12:39:44.158Z,996.06
2023-04-12T12:40:44.167Z,996.03
2023-04-12T12:41:44.173Z,996.04
2023-04-12T12:57:13.279Z,995.92
2023-04-12T12:58:13.153Z,995.89
2023-04-12T12:59:13.147Z,995.84
2023-04-12T13:00:13.146Z,995.87
2023-04-12T13:01:13.163Z,995.85
2023-04-12T13:02:13.266Z,995.82
2023-04-12T13:03:13.343Z,995.84
2023-04-12T13:04:13.254Z,995.83
2023-04-12T13:05:13.262Z,995.80
2023-04-12T13:06:13.180Z,995.81
2023-04-12T13:07:13.177Z,995.80
2023-04-12T13:08:13.188Z,995.77
2023-04-12T13:09:13.193Z,995.77
2023-04-12T13:10:13.219Z,995.77
2023-04-12T13:11:13.198Z,995.83
2023-04-12T13:12:13.198Z,995.78
2023-04-12T13:13:13.245Z,995.75
2023-04-12T13:14:13.211Z,995.72
2023-04-12T13:15:22.463Z,995.69
2023-04-12T13:16:13.244Z,995.73
2023-04-12T13:17:13.218Z,995.73
2023-04-12T13:18:13.221Z,995.73
2023-04-12T13:19:13.241Z,995.70
2023-04-12T13:20:13.228Z,995.66
2023-04-12T13:21:13.240Z,995.66
2023-04-12T13:22:13.238Z,995.70
2023-04-12T13:23:13.246Z,995.69
2023-04-12T13:24:13.246Z,995.65
2023-04-12T13:25:13.250Z,995.62
2023-04-12T13:26:13.263Z,995.63
2023-04-12T13:27:15.155Z,995.58
2023-04-12T13:28:13.274Z,995.51
2023-04-12T13:29:13.297Z,995.53
2023-04-12T13:30:13.279Z,995.52
2023-04-12T13:31:13.303Z,995.52
2023-04-12T13:32:13.346Z,995.53
2023-04-12T13:33:18.347Z,995.57
2023-04-12T13:34:13.293Z,995.54
2023-04-12T13:35:13.298Z,995.53
2023-04-12T13:36:13.301Z,995.52
2023-04-12T13:37:13.300Z,995.47
2023-04-12T13:38:13.304Z,995.46
2023-04-12T13:39:13.313Z,995.43
2023-04-12T13:40:13.335Z,995.41
2023-04-12T13:41:13.330Z,995.47
2023-04-12T13:42:13.324Z,995.39
2023-04-12T13:43:13.328Z,995.37
2023-04-12T13:44:13.341Z,995.41
2023-04-12T13:45:13.420Z,995.38
2023-04-12T13:46:13.397Z,995.40
2023-04-12T13:47:13.348Z,995.38
2023-04-12T13:48:13.414Z,995.37
2023-04-12T13:49:13.376Z,995.33
2023-04-12T13:50:13.369Z,995.30
2023-04-12T13:51:13.366Z,995.29
2023-04-12T13:52:13.382Z,995.29
2023-04-12T13:53:13.373Z,995.27
2023-04-12T13:54:13.385Z,995.26
2023-04-12T13:55:13.389Z,995.32
2023-04-12T13:56:13.388Z,995.28
2023-04-12T13:57:13.401Z,995.28
2023-04-12T13:58:13.407Z,995.25
2023-04-12T13:59:13.414Z,995.24
2023-04-12T14:00:13.412Z,995.22
2023-04-12T14:01:13.501Z,995.26
2023-04-12T14:02:13.490Z,995.21
2023-04-12T14:03:13.507Z,995.19
2023-04-12T14:04:13.499Z,995.17
2023-04-12T14:05:13.431Z,995.13
2023-04-12T14:06:13.445Z,995.11
2023-04-12T14:07:13.468Z,995.10
2023-04-12T14:08:13.452Z,995.03
2023-04-12T14:09:13.481Z,995.07
2023-04-12T14:10:13.460Z,995.07
2023-04-12T14:11:13.465Z,995.06
2023-04-12T14:12:13.470Z,995.06
2023-04-12T14:13:13.477Z,995.05
2023-04-12T14:14:16.118Z,995.04
2023-04-12T14:15:13.482Z,995.01
2023-04-12T14:16:13.494Z,994.97
2023-04-12T14:17:13.626Z,994.95
2023-04-12T14:18:13.498Z,994.99
2023-04-12T14:19:13.499Z,994.93
2023-04-12T14:20:13.510Z,995.01
2023-04-12T14:21:13.518Z,994.99
2023-04-12T14:22:13.513Z,995.01
2023-04-12T14:23:13.529Z,994.98
2023-04-12T14:24:13.523Z,994.95
2023-04-12T14:25:13.536Z,994.88
2023-04-12T14:26:13.545Z,994.91
2023-04-12T14:27:14.989Z,994.88
2023-04-12T14:28:13.545Z,994.89
2023-04-12T14:29:13.595Z,994.88
2023-04-12T14:30:13.562Z,994.85
2023-04-12T14:31:13.653Z,994.86
2023-04-12T14:32:13.577Z,994.82
2023-04-12T14:33:13.697Z,994.84
2023-04-12T14:34:13.572Z,994.81
2023-04-12T14:35:13.578Z,994.74
2023-04-12T14:36:13.589Z,994.66
2023-04-12T14:37:13.586Z,994.69
2023-04-12T14:38:13.594Z,994.72
2023-04-12T14:39:14.899Z,994.76
2023-04-12T14:40:13.604Z,994.76
2023-04-12T14:41:13.608Z,994.72
2023-04-12T14:42:13.611Z,994.74
2023-04-12T14:43:13.673Z,994.77
2023-04-12T14:44:13.622Z,994.77
2023-04-12T14:45:13.629Z,994.73
2023-04-12T14:46:13.679Z,994.71
2023-04-12T14:47:13.642Z,994.72
2023-04-12T14:48:13.652Z,994.66
2023-04-12T14:49:13.680Z,994.68
2023-04-12T14:50:13.671Z,994.71
2023-04-12T14:51:13.662Z,994.71
2023-04-12T14:52:13.657Z,994.66
2023-04-12T14:53:13.664Z,994.65
2023-04-12T14:54:13.675Z,994.59
2023-04-12T14:55:13.681Z,994.57
2023-04-12T14:56:13.684Z,994.56
2023-04-12T14:57:13.695Z,994.52
2023-04-12T14:58:13.691Z,994.53
2023-04-12T14:59:13.718Z,994.47
2023-04-12T15:00:13.723Z,994.52
2023-04-12T15:01:13.704Z,994.48
2023-04-12T15:02:13.830Z,994.42
2023-04-12T15:03:14.089Z,994.47
2023-04-12T15:04:13.866Z,994.42
2023-04-12T15:05:13.820Z,994.35
2023-04-12T15:06:13.726Z,994.34
2023-04-12T15:07:13.735Z,994.37
2023-04-12T15:08:13.734Z,994.38
2023-04-12T15:09:13.744Z,994.36
2023-04-12T15:10:13.745Z,994.32
2023-04-12T15:11:13.747Z,994.26
2023-04-12T15:12:13.760Z,994.22
2023-04-12T15:13:13.794Z,994.17
2023-04-12T15:14:13.770Z,994.24
2023-04-12T15:15:13.766Z,994.30
2023-04-12T15:16:13.831Z,994.33
2023-04-12T15:17:13.784Z,994.31
2023-04-12T15:18:13.784Z,994.30
2023-04-12T15:19:19.919Z,994.34
2023-04-12T15:20:13.806Z,994.31
2023-04-12T15:21:13.827Z,994.26
2023-04-12T15:22:13.802Z,994.27
2023-04-12T15:25:54.692Z,994.29
2023-04-12T15:26:54.701Z,994.30
2023-04-12T15:27:54.700Z,994.36
2023-04-12T15:28:54.704Z,994.35
2023-04-12T15:29:54.709Z,994.29
2023-04-12T15:30:54.707Z,994.37
2023-04-12T15:31:54.770Z,994.41
2023-04-12T15:32:54.740Z,994.41
2023-04-12T15:33:54.759Z,994.38
2023-04-12T15:34:54.728Z,994.39
2023-04-12T15:35:54.739Z,994.41
2023-04-12T15:36:54.811Z,994.36
2023-04-12T15:37:54.800Z,994.36
2023-04-12T15:38:54.757Z,994.32
2023-04-12T15:39:54.757Z,994.26
2023-04-12T15:40:54.760Z,994.32
2023-04-12T15:41:54.767Z,994.30
2023-04-12T15:42:54.764Z,994.28
2023-04-12T15:43:54.773Z,994.31
2023-04-12T15:44:54.784Z,994.29
2023-04-12T15:45:55.081Z,994.31
2023-04-12T15:47:07.851Z,994.29
2023-04-12T15:47:54.852Z,994.31
2023-04-12T15:48:54.808Z,994.25
2023-04-12T15:49:54.807Z,994.21
2023-04-12T15:50:54.804Z,994.20
2023-04-12T15:51:54.834Z,994.20
2023-04-12T15:52:54.848Z,994.17
2023-04-12T15:53:54.829Z,994.29
2023-04-12T15:54:54.824Z,994.19
2023-04-12T15:55:55.019Z,994.27
2023-04-12T15:56:54.845Z,994.22
2023-04-12T15:57:54.856Z,994.17
2023-04-12T15:58:54.942Z,994.23
2023-04-12T15:59:54.848Z,994.22
2023-04-12T16:00:55.073Z,994.20
2023-04-12T16:01:54.934Z,994.18
2023-04-12T16:02:55.189Z,994.15
2023-04-12T16:03:55.061Z,994.14
2023-04-12T16:04:54.938Z,994.19
2023-04-12T16:05:55.087Z,994.08
2023-04-12T16:06:54.883Z,994.10
2023-04-12T16:07:54.894Z,994.09
2023-04-12T16:08:54.925Z,994.09
2023-04-12T16:09:54.897Z,994.07
2023-04-12T16:10:54.942Z,994.13
2023-04-12T16:11:54.920Z,994.05
2023-04-12T16:12:54.919Z,994.14
2023-04-12T16:13:54.972Z,994.06
2023-04-12T16:14:54.920Z,994.07
2023-04-12T16:15:54.929Z,994.05
2023-04-12T16:16:54.933Z,994.03
2023-04-12T16:17:54.964Z,994.04
2023-04-12T16:18:54.951Z,993.99
2023-04-12T16:19:54.950Z,993.96
2023-04-12T16:20:54.976Z,993.90
2023-04-12T16:21:54.974Z,993.93
2023-04-12T16:22:54.985Z,993.97
2023-04-12T16:23:54.963Z,993.92
2023-04-12T16:24:54.995Z,993.92
2023-04-12T16:25:54.981Z,993.91
2023-04-12T16:26:54.981Z,993.93
2023-04-12T16:27:54.988Z,993.90
2023-04-12T16:28:55.100Z,993.92
2023-04-12T16:29:55.000Z,993.86
2023-04-12T16:30:55.046Z,993.87
2023-04-12T16:31:55.086Z,993.86
2023-04-12T16:32:55.057Z,993.80
2023-04-12T16:33:55.016Z,993.81
2023-04-12T16:34:55.023Z,993.71
2023-04-12T16:35:55.032Z,993.73
2023-04-12T16:36:55.024Z,993.70
2023-04-12T16:37:55.038Z,993.74
2023-04-12T16:38:55.492Z,993.74
2023-04-12T16:39:55.071Z,993.74
2023-04-12T16:40:55.074Z,993.74
2023-04-12T16:41:55.053Z,993.76
2023-04-12T16:42:55.057Z,993.79
2023-04-12T16:43:55.077Z,993.77
2023-04-12T16:44:55.079Z,993.76
2023-04-12T16:45:55.072Z,993.69
2023-04-12T16:46:55.223Z,993.75
2023-04-12T16:47:55.108Z,993.73
2023-04-12T16:48:55.235Z,993.76
2023-04-12T16:49:55.098Z,993.74
2023-04-12T16:50:55.100Z,993.69
2023-04-12T16:51:55.111Z,993.73
2023-04-12T16:52:55.108Z,993.71
2023-04-12T16:53:55.205Z,993.67
2023-04-12T16:54:55.120Z,993.64
2023-04-12T16:55:56.752Z,993.60
2023-04-12T16:56:55.153Z,993.59
2023-04-12T16:57:55.153Z,993.58
2023-04-12T16:58:55.143Z,993.52
2023-04-12T16:59:55.196Z,993.47
2023-04-12T17:00:55.150Z,993.46
2023-04-12T17:01:55.163Z,993.42
2023-04-12T17:02:55.262Z,993.40
2023-04-12T17:03:55.332Z,993.42
2023-04-12T17:04:55.167Z,993.47
2023-04-12T17:05:55.179Z,993.47
2023-04-12T17:06:55.188Z,993.42
2023-04-12T17:07:55.185Z,993.44
2023-04-12T17:08:55.219Z,993.44
2023-04-12T17:09:55.198Z,993.36
2023-04-12T17:10:55.209Z,993.36
2023-04-12T17:11:55.200Z,993.37
2023-04-12T17:12:55.256Z,993.32
2023-04-12T17:13:55.219Z,993.31
2023-04-12T17:14:55.228Z,993.22
2023-04-12T17:15:55.266Z,993.25
2023-04-12T17:16:55.233Z,993.30
2023-04-12T17:17:55.260Z,993.24
2023-04-12T17:18:55.237Z,993.33
2023-04-12T17:19:55.243Z,993.35
2023-04-12T17:20:55.244Z,993.38
2023-04-12T17:21:55.249Z,993.36
2023-04-12T17:22:55.257Z,993.37
2023-04-12T17:23:55.264Z,993.39
2023-04-12T17:24:55.285Z,993.40
2023-04-12T17:25:55.266Z,993.38
2023-04-12T17:26:55.282Z,993.37
2023-04-12T17:27:55.296Z,993.37
2023-04-12T17:28:55.311Z,993.35
2023-04-12T17:29:55.288Z,993.40
2023-04-12T17:30:55.302Z,993.37
2023-04-12T17:31:55.308Z,993.35
2023-04-12T17:32:55.326Z,993.37
2023-04-12T17:33:55.527Z,993.32
2023-04-12T17:34:55.327Z,993.27
2023-04-12T17:35:55.329Z,993.27
2023-04-12T17:36:55.329Z,993.34
2023-04-12T17:37:55.344Z,993.30
2023-04-12T17:38:57.129Z,993.28
2023-04-12T17:39:55.346Z,993.27
2023-04-12T17:40:55.354Z,993.29
2023-04-12T17:41:55.353Z,993.28
2023-04-12T17:42:55.356Z,993.25
2023-04-12T17:43:55.559Z,993.25
2023-04-12T17:44:55.468Z,993.26
2023-04-12T17:45:55.411Z,993.28
2023-04-12T17:46:55.380Z,993.28
2023-04-12T17:47:55.433Z,993.26
2023-04-12T17:48:55.507Z,993.27
2023-04-12T17:49:55.397Z,993.23
2023-04-12T17:50:55.390Z,993.25
2023-04-12T17:51:55.390Z,993.20
2023-04-12T17:52:55.408Z,993.18
2023-04-12T17:53:55.415Z,993.13
2023-04-12T17:54:55.408Z,993.22
2023-04-12T17:55:55.421Z,993.15
2023-04-12T17:56:55.418Z,993.20
2023-04-12T17:57:55.435Z,993.22
2023-04-12T17:58:55.617Z,993.22
2023-04-12T17:59:55.445Z,993.21
2023-04-12T18:00:55.463Z,993.20
2023-04-12T18:01:55.580Z,993.23
2023-04-12T18:02:55.549Z,993.19
2023-04-12T18:03:55.583Z,993.22
2023-04-12T18:04:55.470Z,993.17
2023-04-12T18:05:55.476Z,993.17
2023-04-12T18:06:55.477Z,993.19
2023-04-12T18:07:55.472Z,993.22
2023-04-12T18:08:55.627Z,993.28
2023-04-12T18:09:55.485Z,993.29
2023-04-12T18:10:55.510Z,993.32
2023-04-12T18:11:55.497Z,993.31
2023-04-12T18:12:55.497Z,993.31
2023-04-12T18:13:55.706Z,993.30
2023-04-12T18:14:55.532Z,993.35
2023-04-12T18:15:55.534Z,993.33
2023-04-12T18:16:55.549Z,993.34
2023-04-12T18:17:55.565Z,993.36
2023-04-12T18:18:55.585Z,993.35
2023-04-12T18:19:55.545Z,993.37
2023-04-12T18:20:55.535Z,993.34
2023-04-12T18:21:55.539Z,993.35
2023-04-12T18:22:55.544Z,993.37
2023-04-12T18:23:55.594Z,993.37
2023-04-12T18:24:55.563Z,993.36
2023-04-12T18:25:55.559Z,993.35
2023-04-12T18:26:55.572Z,993.36
2023-04-12T18:27:55.576Z,993.33
2023-04-12T18:28:55.680Z,993.33
2023-04-12T18:29:55.585Z,993.33
2023-04-12T18:30:57.223Z,993.36
2023-04-12T18:31:55.627Z,993.34
2023-04-12T18:32:55.657Z,993.33
2023-04-12T18:33:55.767Z,993.32
2023-04-12T18:34:55.602Z,993.31
2023-04-12T18:35:55.607Z,993.29
2023-04-12T18:36:55.621Z,993.25
2023-04-12T18:37:55.624Z,993.27
2023-04-12T18:38:55.641Z,993.27
2023-04-12T18:39:55.669Z,993.27
2023-04-12T18:40:55.637Z,993.21
2023-04-12T18:41:55.644Z,993.22
2023-04-12T18:42:55.644Z,993.23
2023-04-12T18:43:55.677Z,993.20
2023-04-12T18:44:55.652Z,993.24
2023-04-12T18:45:55.666Z,993.26
2023-04-12T18:46:55.750Z,993.26
2023-04-12T18:47:55.704Z,993.28
2023-04-12T18:48:55.692Z,993.30
2023-04-12T18:49:55.681Z,993.37
2023-04-12T18:50:55.688Z,993.36
2023-04-12T18:51:55.692Z,993.40
2023-04-12T18:52:55.700Z,993.41
2023-04-12T18:53:55.753Z,993.48
2023-04-12T18:54:55.702Z,993.46
2023-04-12T18:55:55.715Z,993.51
2023-04-12T18:56:55.711Z,993.46
2023-04-12T18:57:55.720Z,993.47
2023-04-12T18:58:56.339Z,993.49
2023-04-12T18:59:55.788Z,993.55
2023-04-12T19:00:55.753Z,993.59
2023-04-12T19:01:55.776Z,993.65
2023-04-12T19:02:55.813Z,993.68
2023-04-12T19:03:55.969Z,993.74
2023-04-12T19:04:55.775Z,993.80
2023-04-12T19:05:55.758Z,993.82
2023-04-12T19:06:55.761Z,993.77
2023-04-12T19:07:55.759Z,993.81
2023-04-12T19:08:55.766Z,993.86
2023-04-12T19:09:55.773Z,993.90
2023-04-12T19:10:55.781Z,993.86
2023-04-12T19:11:55.778Z,993.83
2023-04-12T19:12:55.782Z,993.81
2023-04-12T19:13:55.872Z,993.85
2023-04-12T19:14:55.793Z,993.83
2023-04-12T19:15:55.845Z,993.82
2023-04-12T19:16:55.811Z,993.87
2023-04-12T19:17:55.861Z,993.85
2023-04-12T19:18:55.819Z,993.86
2023-04-12T19:19:55.833Z,993.86
2023-04-12T19:20:55.842Z,993.83
2023-04-12T19:21:55.914Z,993.84
2023-04-12T19:22:55.829Z,993.82
2023-04-12T19:23:56.004Z,993.80
2023-04-12T19:24:55.840Z,993.75
2023-04-12T19:25:55.849Z,993.81
2023-04-12T19:26:55.856Z,993.75
2023-04-12T19:27:55.859Z,993.77
2023-04-12T19:28:55.950Z,993.71
2023-04-12T19:29:55.866Z,993.68
2023-04-12T19:30:55.867Z,993.68
2023-04-12T19:31:55.972Z,993.63
2023-04-12T19:32:55.908Z,993.62
2023-04-12T19:33:56.009Z,993.63
2023-04-12T19:34:55.892Z,993.62
2023-04-12T19:35:55.902Z,993.61
2023-04-12T19:36:55.927Z,993.55
2023-04-12T19:37:55.907Z,993.50
2023-04-12T19:38:56.150Z,993.48
2023-04-12T19:39:55.914Z,993.47
2023-04-12T19:40:55.918Z,993.47
2023-04-12T19:41:55.920Z,993.49
2023-04-12T19:42:55.926Z,993.47
2023-04-12T19:43:55.957Z,993.44
2023-04-12T19:44:55.935Z,993.44
2023-04-12T19:45:55.981Z,993.40
2023-04-12T19:46:55.954Z,993.37
2023-04-12T19:47:55.977Z,993.30
2023-04-12T19:48:56.129Z,993.30
2023-04-12T19:49:55.958Z,993.28
2023-04-12T19:50:55.974Z,993.27
2023-04-12T19:51:55.984Z,993.27
2023-04-12T19:52:55.994Z,993.35
2023-04-12T19:53:56.063Z,993.40
2023-04-12T19:54:55.989Z,993.40
2023-04-12T19:55:55.998Z,993.39
2023-04-12T19:56:56.011Z,993.42
2023-04-12T19:57:56.001Z,993.45
2023-04-12T19:58:56.136Z,993.42
2023-04-12T19:59:56.012Z,993.47
2023-04-12T20:00:56.041Z,993.48
2023-04-12T20:01:56.060Z,993.49
2023-04-12T20:02:56.073Z,993.53
2023-04-12T20:03:56.114Z,993.57
2023-04-12T20:04:56.029Z,993.62
2023-04-12T20:05:56.033Z,993.65
2023-04-12T20:06:56.037Z,993.67
2023-04-12T20:07:56.251Z,993.66
2023-04-12T20:08:56.402Z,993.68
2023-04-12T20:09:56.052Z,993.62
2023-04-12T20:10:56.064Z,993.62
2023-04-12T20:11:56.060Z,993.56
2023-04-12T20:12:56.072Z,993.52
2023-04-12T20:13:56.086Z,993.49
2023-04-12T20:14:56.084Z,993.48
2023-04-12T20:15:56.087Z,993.49
2023-04-12T20:16:56.155Z,993.48
2023-04-12T20:17:56.181Z,993.48
2023-04-12T20:18:56.304Z,993.52
2023-04-12T20:19:57.395Z,993.57
2023-04-12T20:20:56.116Z,993.59
2023-04-12T20:21:56.156Z,993.64
2023-04-12T20:22:56.121Z,993.65
2023-04-12T20:23:56.148Z,993.71
2023-04-12T20:24:56.148Z,993.77
2023-04-12T20:25:56.147Z,993.82
2023-04-12T20:26:56.132Z,993.83
2023-04-12T20:27:56.138Z,993.82
2023-04-12T20:28:56.290Z,993.92
2023-04-12T20:29:56.168Z,993.91
2023-04-12T20:30:56.205Z,993.93
2023-04-12T20:31:56.166Z,993.96
2023-04-12T20:32:56.213Z,993.99
2023-04-12T20:33:56.180Z,993.98
2023-04-12T20:34:56.183Z,993.99
2023-04-12T20:35:56.175Z,994.04
2023-04-12T20:36:56.185Z,994.00
2023-04-12T20:37:56.191Z,993.98
2023-04-12T20:38:56.403Z,994.01
2023-04-12T20:39:56.199Z,994.01
2023-04-12T20:40:56.220Z,994.04
2023-04-12T20:41:56.210Z,994.06
2023-04-12T20:42:56.214Z,994.06
2023-04-12T20:43:56.220Z,994.01
2023-04-12T20:44:56.225Z,994.01
2023-04-12T20:45:56.293Z,994.02
2023-04-12T20:46:56.313Z,994.03
2023-04-12T20:47:56.288Z,993.98
2023-04-12T20:48:56.811Z,993.99
2023-04-12T20:49:56.260Z,994.00
2023-04-12T20:50:56.287Z,993.98
2023-04-12T20:51:56.294Z,993.92
2023-04-12T20:52:56.262Z,993.94
2023-04-12T20:53:56.267Z,993.95
2023-04-12T20:54:56.279Z,993.96
2023-04-12T20:55:56.274Z,993.95
2023-04-12T20:56:56.304Z,993.97
2023-04-12T20:57:56.280Z,993.98
2023-04-12T20:58:56.666Z,993.98
2023-04-12T20:59:56.288Z,993.99
2023-04-12T21:00:56.291Z,994.00
2023-04-12T21:01:56.370Z,994.00
2023-04-12T21:02:56.457Z,993.94
2023-04-12T21:03:56.425Z,993.93
2023-04-12T21:04:58.803Z,993.97
2023-04-12T21:05:56.321Z,993.97
2023-04-12T21:06:56.322Z,993.99
2023-04-12T21:07:56.324Z,994.00
2023-04-12T21:08:56.717Z,993.98
2023-04-12T21:09:56.345Z,994.03
2023-04-12T21:10:56.353Z,994.00
2023-04-12T21:11:56.352Z,994.02
2023-04-12T21:12:56.369Z,994.03
2023-04-12T21:13:56.353Z,994.01
2023-04-12T21:14:56.366Z,994.03
2023-04-12T21:15:56.397Z,994.03
2023-04-12T21:16:56.378Z,994.02
2023-04-12T21:17:56.430Z,994.01
2023-04-12T21:18:56.655Z,994.06
2023-04-12T21:19:56.384Z,994.08
2023-04-12T21:20:56.388Z,994.13
2023-04-12T21:21:56.405Z,994.18
2023-04-12T21:22:56.406Z,994.17
2023-04-12T21:23:56.418Z,994.23
2023-04-12T21:24:56.410Z,994.22
2023-04-12T21:25:56.419Z,994.25
2023-04-12T21:26:56.427Z,994.25
2023-04-12T21:27:56.429Z,994.32
2023-04-12T21:28:56.634Z,994.28
2023-04-12T21:29:56.435Z,994.30
2023-04-12T21:30:56.446Z,994.40
2023-04-12T21:31:56.505Z,994.43
2023-04-12T21:32:56.516Z,994.41
2023-04-12T21:33:56.458Z,994.43
2023-04-12T21:34:56.461Z,994.45
2023-04-12T21:35:56.498Z,994.48
2023-04-12T21:36:56.468Z,994.48
2023-04-12T21:37:56.478Z,994.51
2023-04-12T21:38:56.705Z,994.52
2023-04-12T21:39:56.480Z,994.55
2023-04-12T21:40:56.492Z,994.59
2023-04-12T21:41:56.497Z,994.57
2023-04-12T21:42:56.499Z,994.62
2023-04-12T21:43:56.504Z,994.64
2023-04-12T21:44:56.589Z,994.71
2023-04-12T21:45:56.616Z,994.66
2023-04-12T21:46:56.511Z,994.72
2023-04-12T21:47:56.542Z,994.75
2023-04-12T21:48:56.731Z,994.79
2023-04-12T21:49:56.525Z,994.81
2023-04-12T21:50:56.530Z,994.81
2023-04-12T21:51:56.536Z,994.87
2023-04-12T21:52:56.545Z,994.91
2023-04-12T21:53:56.552Z,995.00
2023-04-12T21:54:56.558Z,995.02
2023-04-12T21:55:56.552Z,995.03
2023-04-12T21:56:56.568Z,994.98
2023-04-12T21:57:56.575Z,994.97
2023-04-12T21:58:56.806Z,994.97
2023-04-12T21:59:56.573Z,994.94
2023-04-12T22:00:56.630Z,994.87
2023-04-12T22:01:56.644Z,994.84
2023-04-12T22:02:56.744Z,994.82
2023-04-12T22:03:56.697Z,994.83
2023-04-12T22:04:56.593Z,994.87
2023-04-12T22:06:04.057Z,994.94
2023-04-12T22:06:56.612Z,994.97
2023-04-12T22:07:56.606Z,994.92
2023-04-12T22:08:56.838Z,994.94
2023-04-12T22:09:56.621Z,994.91
2023-04-12T22:10:56.626Z,994.90
2023-04-12T22:11:56.631Z,994.88
2023-04-12T22:12:56.638Z,994.87
2023-04-12T22:13:56.642Z,994.88
2023-04-12T22:14:56.652Z,994.91
2023-04-12T22:15:56.644Z,994.94
2023-04-12T22:16:56.699Z,994.90
2023-04-12T22:17:56.723Z,994.92
2023-04-12T22:18:56.865Z,994.96
2023-04-12T22:19:56.672Z,994.91